Time;durP1;ratioP1;P1;durP2;ratioP2;P2;SDS_P1;SDS_P2;PMS_P1;PMS_P2;Temp;Humidity;BMP_temperature;BMP_pressure;BME280_temperature;BME280_humidity;BME280_pressure;Samples;Min_cycle;Max_cycle;Signal;HPM_P1;HPM_P2
2022/07/19 00:01:58;;;;;;;;;;;;;;;;;;5007881;28;19921;-70
2022/07/19 00:04:23;;;;;;;;;;;;;;;;;;5007741;28;20390;-70
2022/07/19 00:06:49;;;;;;;;;;;;;;;;;;5009352;28;19960;-70
2022/07/19 00:09:14;;;;;;;;;;;;;;;;;;5003264;28;21368;-70
2022/07/19 00:11:39;;;;;;;;;;;;;;;;;;5000719;28;19917;-70
2022/07/19 00:14:04;;;;;;;;;;;;;;;;;;5000011;28;20104;-70
2022/07/19 00:16:29;;;;;;;;;;;;;;;;;;4995724;28;20596;-70
2022/07/19 00:18:54;;;;;;;;;;;;;;;;;;4995533;28;19967;-70
2022/07/19 00:21:19;;;;;;;;;;;;;;;;;;4995193;28;19913;-70
2022/07/19 00:23:45;;;;;;;;;;;;;;;;;;4998440;28;19913;-70
2022/07/19 00:26:10;;;;;;;;;;;;;;;;;;4993861;28;19913;-70
2022/07/19 00:28:35;;;;;;;;;;;;;;;;;;4990207;28;19913;-70
2022/07/19 00:31:00;;;;;;;;;;;;;;;;;;4992774;28;19945;-70
2022/07/19 00:33:25;;;;;;;;;;;;;;;;;;4990322;28;20477;-70
2022/07/19 00:35:50;;;;;;;;;;;;;;;;;;4989956;28;20024;-70
2022/07/19 00:38:15;;;;;;;;;;;;;;;;;;4995057;28;19918;-70
2022/07/19 00:40:40;;;;;;;;;;;;;;;;;;4995834;28;19909;-70
2022/07/19 00:43:05;;;;;;;;;;;;;;;;;;4992335;28;19917;-70
2022/07/19 00:45:30;;;;;;;;;;;;;;;;;;4990437;28;19909;-70
2022/07/19 00:47:56;;;;;;;;;;;;;;;;;;4992247;28;19933;-70
2022/07/19 00:50:21;;;;;;;;;;;;;;;;;;4990250;28;19917;-70
2022/07/19 00:52:46;;;;;;;;;;;;;;;;;;4994710;28;20619;-70
2022/07/19 00:55:11;;;;;;;;;;;;;;;;;;4990530;28;20375;-70
2022/07/19 00:57:37;;;;;;;;;;;;;;;;;;4989300;28;19909;-70
2022/07/19 01:00:03;;;;;;;;;;;;;;;;;;4990403;28;19976;-70
2022/07/19 01:02:28;;;;;;;;;;;;;;;;;;4988371;28;20079;-70
2022/07/19 01:04:53;;;;;;;;;;;;;;;;;;4988646;28;20551;-70
2022/07/19 01:07:18;;;;;;;;;;;;;;;;;;4987435;28;19917;-70
2022/07/19 01:09:43;;;;;;;;;;;;;;;;;;4995017;28;19913;-70
2022/07/19 01:12:08;;;;;;;;;;;;;;;;;;4995670;28;19917;-70
2022/07/19 01:14:35;;;;;;;;;;;;;;;;;;4995862;28;19921;-70
2022/07/19 01:17:00;;;;;;;;;;;;;;;;;;4996975;28;19917;-70
2022/07/19 01:19:25;;;;;;;;;;;;;;;;;;5000577;28;19910;-70
2022/07/19 01:21:50;;;;;;;;;;;;;;;;;;4999079;28;19923;-70
2022/07/19 01:24:15;;;;;;;;;;;;;;;;;;4989151;28;19917;-70
2022/07/19 01:26:40;;;;;;;;;;;;;;;;;;4990187;28;19921;-70
2022/07/19 01:29:06;;;;;;;;;;;;;;;;;;4995714;28;20359;-69
2022/07/19 01:31:31;;;;;;;;;;;;;;;;;;4993543;28;19909;-70
2022/07/19 01:33:56;;;;;;;;;;;;;;;;;;4995441;28;19913;-71
2022/07/19 01:36:21;;;;;;;;;;;;;;;;;;4993819;28;19913;-70
2022/07/19 01:38:46;;;;;;;;;;;;;;;;;;4991943;28;20420;-70
2022/07/19 01:41:11;;;;;;;;;;;;;;;;;;4993500;28;19929;-70
2022/07/19 01:43:36;;;;;;;;;;;;;;;;;;4993611;28;19986;-70
2022/07/19 01:46:01;;;;;;;;;;;;;;;;;;4995485;28;19913;-70
2022/07/19 01:48:26;;;;;;;;;;;;;;;;;;4992838;28;19936;-70
2022/07/19 01:50:51;;;;;;;;;;;;;;;;;;4994459;28;19924;-70
2022/07/19 01:53:16;;;;;;;;;;;;;;;;;;4996211;28;20012;-70
2022/07/19 01:55:42;;;;;;;;;;;;;;;;;;4993639;28;20139;-70
2022/07/19 01:58:07;;;;;;;;;;;;;;;;;;4993409;28;19918;-70
2022/07/19 02:00:32;;;;;;;;;;;;;;;;;;4999093;28;19916;-70
2022/07/19 02:02:57;;;;;;;;;;;;;;;;;;4996403;28;20565;-70
2022/07/19 02:05:22;;;;;;;;;;;;;;;;;;4994234;28;20253;-70
2022/07/19 02:07:47;;;;;;;;;;;;;;;;;;4994261;28;19918;-70
2022/07/19 02:10:12;;;;;;;;;;;;;;;;;;4997323;28;21709;-70
2022/07/19 02:12:37;;;;;;;;;;;;;;;;;;4990714;28;19920;-70
2022/07/19 02:15:03;;;;;;;;;;;;;;;;;;4995807;28;19928;-70
2022/07/19 02:17:28;;;;;;;;;;;;;;;;;;4993786;28;19910;-70
2022/07/19 02:19:53;;;;;;;;;;;;;;;;;;4995412;28;20380;-70
2022/07/19 02:22:18;;;;;;;;;;;;;;;;;;4998724;28;19910;-70
2022/07/19 02:24:43;;;;;;;;;;;;;;;;;;5000400;28;20332;-70
2022/07/19 02:27:08;;;;;;;;;;;;;;;;;;4999574;28;19913;-70
2022/07/19 02:29:33;;;;;;;;;;;;;;;;;;5000066;28;19913;-70
2022/07/19 02:31:58;;;;;;;;;;;;;;;;;;4996031;28;19913;-70
2022/07/19 02:34:23;;;;;;;;;;;;;;;;;;4999019;28;20012;-70
2022/07/19 02:36:49;;;;;;;;;;;;;;;;;;4993706;28;20415;-70
2022/07/19 02:39:14;;;;;;;;;;;;;;;;;;4991368;28;19909;-70
2022/07/19 02:41:39;;;;;;;;;;;;;;;;;;4993596;28;19914;-70
2022/07/19 02:44:04;;;;;;;;;;;;;;;;;;4996518;28;19952;-70
2022/07/19 02:46:29;;;;;;;;;;;;;;;;;;4996203;28;19917;-70
2022/07/19 02:48:54;;;;;;;;;;;;;;;;;;4998014;28;19918;-70
2022/07/19 02:51:19;;;;;;;;;;;;;;;;;;5000905;28;19964;-70
2022/07/19 02:53:44;;;;;;;;;;;;;;;;;;5000156;28;19917;-70
2022/07/19 02:56:09;;;;;;;;;;;;;;;;;;4994296;28;19921;-70
2022/07/19 02:58:35;;;;;;;;;;;;;;;;;;4995399;28;19921;-70
2022/07/19 03:01:00;;;;;;;;;;;;;;;;;;4997986;28;19917;-70
2022/07/19 03:03:43;;;;;;;;;;;;;;;;;;4998985;28;20288;-70
2022/07/19 03:06:08;;;;;;;;;;;;;;;;;;4998907;28;20181;-70
2022/07/19 03:08:33;;;;;;;;;;;;;;;;;;4996682;28;19959;-70
2022/07/19 03:10:58;;;;;;;;;;;;;;;;;;4997660;28;19956;-70
2022/07/19 03:13:23;;;;;;;;;;;;;;;;;;4994709;28;19920;-70
2022/07/19 03:15:48;;;;;;;;;;;;;;;;;;4994251;28;19917;-70
2022/07/19 03:18:14;;;;;;;;;;;;;;;;;;5001069;28;19917;-70
2022/07/19 03:20:39;;;;;;;;;;;;;;;;;;4991597;28;19909;-70
2022/07/19 03:23:04;;;;;;;;;;;;;;;;;;4993384;28;20372;-69
2022/07/19 03:25:29;;;;;;;;;;;;;;;;;;4991786;28;20399;-69
2022/07/19 03:27:54;;;;;;;;;;;;;;;;;;4993199;28;20019;-70
2022/07/19 03:30:19;;;;;;;;;;;;;;;;;;4991274;28;19917;-70
2022/07/19 03:32:44;;;;;;;;;;;;;;;;;;4992869;28;19929;-70
2022/07/19 03:35:09;;;;;;;;;;;;;;;;;;4994249;28;20382;-70
2022/07/19 03:37:34;;;;;;;;;;;;;;;;;;4990992;28;19913;-70
2022/07/19 03:39:59;;;;;;;;;;;;;;;;;;4994732;28;19917;-70
2022/07/19 03:42:24;;;;;;;;;;;;;;;;;;4992733;28;20007;-70
2022/07/19 03:44:50;;;;;;;;;;;;;;;;;;4994906;28;19917;-70
2022/07/19 03:47:15;;;;;;;;;;;;;;;;;;5003616;28;19941;-70
2022/07/19 03:49:40;;;;;;;;;;;;;;;;;;4995175;28;19936;-70
2022/07/19 03:52:05;;;;;;;;;;;;;;;;;;4992686;28;20360;-70
2022/07/19 03:54:30;;;;;;;;;;;;;;;;;;4992129;28;19917;-71
2022/07/19 03:56:55;;;;;;;;;;;;;;;;;;4992571;28;19966;-71
2022/07/19 03:59:22;;;;;;;;;;;;;;;;;;4993466;28;19915;-71
2022/07/19 04:01:47;;;;;;;;;;;;;;;;;;4990668;28;20356;-71
2022/07/19 04:04:12;;;;;;;;;;;;;;;;;;4991883;28;19921;-71
2022/07/19 04:06:37;;;;;;;;;;;;;;;;;;4993522;28;20360;-70
2022/07/19 04:09:04;;;;;;;;;;;;;;;;;;4999549;28;20371;-71
2022/07/19 04:11:29;;;;;;;;;;;;;;;;;;4992931;28;19924;-70
2022/07/19 04:13:54;;;;;;;;;;;;;;;;;;4988451;28;19909;-70
2022/07/19 04:16:19;;;;;;;;;;;;;;;;;;4995737;28;20344;-70
2022/07/19 04:18:44;;;;;;;;;;;;;;;;;;4996534;28;19921;-70
2022/07/19 04:21:09;;;;;;;;;;;;;;;;;;4994472;28;19921;-70
2022/07/19 04:23:34;;;;;;;;;;;;;;;;;;4995613;28;20020;-70
2022/07/19 04:25:59;;;;;;;;;;;;;;;;;;4995979;28;20347;-70
2022/07/19 04:28:25;;;;;;;;;;;;;;;;;;4998395;28;20356;-70
2022/07/19 04:30:50;;;;;;;;;;;;;;;;;;4997344;28;19913;-70
2022/07/19 04:33:15;;;;;;;;;;;;;;;;;;4996843;28;19925;-70
2022/07/19 04:35:40;;;;;;;;;;;;;;;;;;4994304;28;19963;-70
2022/07/19 04:38:05;;;;;;;;;;;;;;;;;;4993874;28;19996;-70
2022/07/19 04:40:30;;;;;;;;;;;;;;;;;;4992288;28;20004;-70
2022/07/19 04:42:55;;;;;;;;;;;;;;;;;;4991677;28;19924;-70
2022/07/19 04:45:20;;;;;;;;;;;;;;;;;;4992899;28;19916;-71
2022/07/19 04:47:45;;;;;;;;;;;;;;;;;;4990981;28;19993;-71
2022/07/19 04:50:10;;;;;;;;;;;;;;;;;;4992389;28;20340;-71
2022/07/19 04:52:36;;;;;;;;;;;;;;;;;;4992613;28;19913;-70
2022/07/19 04:55:01;;;;;;;;;;;;;;;;;;4987958;28;20368;-70
2022/07/19 04:57:26;;;;;;;;;;;;;;;;;;4992666;28;20347;-71
2022/07/19 04:59:51;;;;;;;;;;;;;;;;;;4993933;28;19992;-71
2022/07/19 05:02:16;;;;;;;;;;;;;;;;;;4988315;28;20009;-71
2022/07/19 05:04:41;;;;;;;;;;;;;;;;;;4988862;28;19913;-71
2022/07/19 05:07:06;;;;;;;;;;;;;;;;;;4989859;28;19913;-71
2022/07/19 05:09:31;;;;;;;;;;;;;;;;;;4991099;28;19913;-71
2022/07/19 05:11:56;;;;;;;;;;;;;;;;;;4991390;28;20514;-70
2022/07/19 05:14:21;;;;;;;;;;;;;;;;;;4998555;28;19923;-71
2022/07/19 05:16:48;;;;;;;;;;;;;;;;;;5003062;28;19928;-71
2022/07/19 05:19:13;;;;;;;;;;;;;;;;;;5002254;28;19972;-71
2022/07/19 05:21:38;;;;;;;;;;;;;;;;;;5001962;28;19917;-71
2022/07/19 05:24:03;;;;;;;;;;;;;;;;;;4997733;28;20430;-71
2022/07/19 05:26:28;;;;;;;;;;;;;;;;;;4996840;28;19916;-72
2022/07/19 05:28:53;;;;;;;;;;;;;;;;;;4995985;28;19917;-72
2022/07/19 05:31:18;;;;;;;;;;;;;;;;;;4994608;28;19922;-71
2022/07/19 05:33:44;;;;;;;;;;;;;;;;;;5001792;28;20694;-71
2022/07/19 05:36:10;;;;;;;;;;;;;;;;;;5000775;28;19916;-70
2022/07/19 05:38:37;;;;;;;;;;;;;;;;;;4996716;28;19914;-70
2022/07/19 05:41:02;;;;;;;;;;;;;;;;;;5005402;28;19913;-72
2022/07/19 05:43:27;;;;;;;;;;;;;;;;;;4997831;28;19910;-72
2022/07/19 05:45:52;;;;;;;;;;;;;;;;;;5003185;28;19909;-73
2022/07/19 05:48:17;;;;;;;;;;;;;;;;;;4997290;28;19925;-71
2022/07/19 05:50:42;;;;;;;;;;;;;;;;;;5002588;28;19970;-71
2022/07/19 05:53:07;;;;;;;;;;;;;;;;;;5005969;28;19925;-71
2022/07/19 05:55:32;;;;;;;;;;;;;;;;;;5005564;28;19913;-70
2022/07/19 05:57:57;;;;;;;;;;;;;;;;;;5013758;28;19953;-72
2022/07/19 06:00:23;;;;;;;;;;;;;;;;;;5001608;28;19913;-71
2022/07/19 06:02:48;;;;;;;;;;;;;;;;;;4996986;28;19921;-71
2022/07/19 06:05:13;;;;;;;;;;;;;;;;;;4997684;28;19917;-71
2022/07/19 06:07:38;;;;;;;;;;;;;;;;;;5000162;28;20381;-71
2022/07/19 06:10:03;;;;;;;;;;;;;;;;;;5001962;28;19917;-74
2022/07/19 06:12:28;;;;;;;;;;;;;;;;;;4993381;28;20267;-69
2022/07/19 06:14:53;;;;;;;;;;;;;;;;;;4998914;28;20070;-69
2022/07/19 06:17:18;;;;;;;;;;;;;;;;;;4996746;28;20051;-74
2022/07/19 06:19:43;;;;;;;;;;;;;;;;;;5008325;28;19971;-69
2022/07/19 06:22:08;;;;;;;;;;;;;;;;;;5003198;28;20335;-71
2022/07/19 06:24:34;;;;;;;;;;;;;;;;;;5007133;28;20394;-70
2022/07/19 06:26:59;;;;;;;;;;;;;;;;;;5002204;28;20339;-70
2022/07/19 06:29:24;;;;;;;;;;;;;;;;;;5002435;28;19913;-69
2022/07/19 06:31:49;;;;;;;;;;;;;;;;;;5011290;28;19913;-70
2022/07/19 06:34:14;;;;;;;;;;;;;;;;;;5005129;28;19914;-70
2022/07/19 06:36:39;;;;;;;;;;;;;;;;;;5002389;28;19968;-70
2022/07/19 06:39:04;;;;;;;;;;;;;;;;;;5001545;28;20320;-69
2022/07/19 06:41:29;;;;;;;;;;;;;;;;;;5002150;28;19914;-71
2022/07/19 06:43:54;;;;;;;;;;;;;;;;;;5002497;28;20342;-69
2022/07/19 06:46:20;;;;;;;;;;;;;;;;;;5004204;28;19913;-69
2022/07/19 06:48:45;;;;;;;;;;;;;;;;;;5009889;28;20099;-70
2022/07/19 06:51:10;;;;;;;;;;;;;;;;;;5007941;28;19917;-69
2022/07/19 06:53:35;;;;;;;;;;;;;;;;;;5007989;28;19948;-69
2022/07/19 06:56:00;;;;;;;;;;;;;;;;;;5003513;28;19928;-71
2022/07/19 06:58:25;;;;;;;;;;;;;;;;;;5004635;28;19909;-70
2022/07/19 07:00:51;;;;;;;;;;;;;;;;;;5004001;28;20004;-71
2022/07/19 07:03:17;;;;;;;;;;;;;;;;;;5002656;28;20237;-71
2022/07/19 07:05:42;;;;;;;;;;;;;;;;;;5006147;28;20003;-71
2022/07/19 07:08:07;;;;;;;;;;;;;;;;;;5005798;28;20004;-70
2022/07/19 07:10:32;;;;;;;;;;;;;;;;;;5001864;28;19913;-71
2022/07/19 07:12:57;;;;;;;;;;;;;;;;;;5002296;28;19917;-72
2022/07/19 07:15:23;;;;;;;;;;;;;;;;;;5002885;28;19913;-70
2022/07/19 07:17:48;;;;;;;;;;;;;;;;;;5003595;28;20000;-71
2022/07/19 07:20:13;;;;;;;;;;;;;;;;;;5002405;28;20181;-70
2022/07/19 07:22:38;;;;;;;;;;;;;;;;;;4999911;28;19914;-71
2022/07/19 07:25:03;;;;;;;;;;;;;;;;;;5006946;28;20158;-69
2022/07/19 07:27:28;;;;;;;;;;;;;;;;;;5002217;28;19909;-72
2022/07/19 07:29:54;;;;;;;;;;;;;;;;;;5000120;28;19918;-69
2022/07/19 07:32:19;;;;;;;;;;;;;;;;;;5001575;28;19917;-70
2022/07/19 07:34:44;;;;;;;;;;;;;;;;;;5002505;28;20376;-69
2022/07/19 07:37:09;;;;;;;;;;;;;;;;;;5000897;28;19917;-69
2022/07/19 07:39:34;;;;;;;;;;;;;;;;;;5002535;28;19917;-69
2022/07/19 07:41:59;;;;;;;;;;;;;;;;;;5002725;28;20014;-69
2022/07/19 07:44:24;;;;;;;;;;;;;;;;;;5000658;28;19924;-69
2022/07/19 07:46:50;;;;;;;;;;;;;;;;;;5000514;28;19913;-70
2022/07/19 07:49:15;;;;;;;;;;;;;;;;;;5006071;28;20492;-70
2022/07/19 07:51:40;;;;;;;;;;;;;;;;;;5005184;28;19914;-71
2022/07/19 07:54:05;;;;;;;;;;;;;;;;;;5001835;28;19917;-70
2022/07/19 07:56:30;;;;;;;;;;;;;;;;;;4997493;28;19980;-69
2022/07/19 07:58:55;;;;;;;;;;;;;;;;;;5000591;28;20277;-69
2022/07/19 08:01:20;;;;;;;;;;;;;;;;;;4999885;28;19914;-70
2022/07/19 08:03:45;;;;;;;;;;;;;;;;;;5001357;28;19985;-70
2022/07/19 08:06:10;;;;;;;;;;;;;;;;;;4999990;28;19909;-69
2022/07/19 08:08:36;;;;;;;;;;;;;;;;;;5002632;28;19916;-69
2022/07/19 08:11:01;;;;;;;;;;;;;;;;;;5005621;28;19909;-70
2022/07/19 08:13:26;;;;;;;;;;;;;;;;;;5004228;28;20382;-69
2022/07/19 08:15:51;;;;;;;;;;;;;;;;;;5003478;28;19917;-70
2022/07/19 08:18:16;;;;;;;;;;;;;;;;;;5003562;28;19996;-68
2022/07/19 08:20:41;;;;;;;;;;;;;;;;;;5006707;28;20165;-70
2022/07/19 08:23:06;;;;;;;;;;;;;;;;;;5000161;28;20371;-70
2022/07/19 08:25:33;;;;;;;;;;;;;;;;;;5002184;28;19910;-69
2022/07/19 08:27:58;;;;;;;;;;;;;;;;;;5002257;28;20205;-71
2022/07/19 08:30:23;;;;;;;;;;;;;;;;;;5006756;28;20367;-72
2022/07/19 08:32:48;;;;;;;;;;;;;;;;;;5000343;28;19916;-71
2022/07/19 08:35:14;;;;;;;;;;;;;;;;;;5003358;28;19968;-71
2022/07/19 08:37:39;;;;;;;;;;;;;;;;;;5003665;28;20202;-71
2022/07/19 08:40:04;;;;;;;;;;;;;;;;;;5003938;28;19913;-70
2022/07/19 08:42:29;;;;;;;;;;;;;;;;;;4999922;28;19949;-70
2022/07/19 08:44:54;;;;;;;;;;;;;;;;;;5001843;28;19913;-71
2022/07/19 08:47:19;;;;;;;;;;;;;;;;;;5001697;28;20291;-71
2022/07/19 08:49:45;;;;;;;;;;;;;;;;;;4999152;28;19917;-72
2022/07/19 08:52:10;;;;;;;;;;;;;;;;;;5008103;28;20000;-70
2022/07/19 08:54:35;;;;;;;;;;;;;;;;;;5002388;28;19971;-71
2022/07/19 08:59:44;;;;;;;;;;;;;;;;;;5003604;28;20280;-70
2022/07/19 09:02:09;;;;;;;;;;;;;;;;;;5000197;28;20020;-71
2022/07/19 09:04:34;;;;;;;;;;;;;;;;;;4995747;28;20757;-71
2022/07/19 09:06:59;;;;;;;;;;;;;;;;;;4995402;28;20092;-69
2022/07/19 09:09:24;;;;;;;;;;;;;;;;;;5002049;28;19963;-72
2022/07/19 09:11:50;;;;;;;;;;;;;;;;;;5004830;28;20004;-71
2022/07/19 09:14:16;;;;;;;;;;;;;;;;;;4998823;28;20545;-71
2022/07/19 09:16:41;;;;;;;;;;;;;;;;;;5002359;28;19914;-70
2022/07/19 09:19:06;;;;;;;;;;;;;;;;;;4999642;28;20368;-71
2022/07/19 09:21:31;;;;;;;;;;;;;;;;;;5002178;28;19948;-70
2022/07/19 09:23:56;;;;;;;;;;;;;;;;;;5000406;28;19915;-70
2022/07/19 09:26:21;;;;;;;;;;;;;;;;;;5003593;28;19914;-71
2022/07/19 09:28:46;;;;;;;;;;;;;;;;;;4994012;28;20254;-70
2022/07/19 09:31:11;;;;;;;;;;;;;;;;;;5004014;28;20386;-70
2022/07/19 09:33:36;;;;;;;;;;;;;;;;;;5000232;28;20440;-69
2022/07/19 09:36:01;;;;;;;;;;;;;;;;;;5003920;28;19967;-69
2022/07/19 09:38:27;;;;;;;;;;;;;;;;;;5001580;28;20133;-71
2022/07/19 09:40:52;;;;;;;;;;;;;;;;;;4999517;28;19917;-70
2022/07/19 09:43:17;;;;;;;;;;;;;;;;;;5003602;28;20548;-71
2022/07/19 09:45:42;;;;;;;;;;;;;;;;;;5000817;28;19909;-72
2022/07/19 09:48:07;;;;;;;;;;;;;;;;;;5000892;28;20391;-71
2022/07/19 09:50:32;;;;;;;;;;;;;;;;;;4998681;28;20272;-71
2022/07/19 09:52:57;;;;;;;;;;;;;;;;;;4997537;28;19909;-71
2022/07/19 09:55:22;;;;;;;;;;;;;;;;;;5000429;28;19917;-71
2022/07/19 09:57:47;;;;;;;;;;;;;;;;;;5001670;28;19956;-71
2022/07/19 10:00:12;;;;;;;;;;;;;;;;;;5001981;28;19932;-71
2022/07/19 10:02:38;;;;;;;;;;;;;;;;;;5003004;28;19913;-71
2022/07/19 10:05:03;;;;;;;;;;;;;;;;;;5004147;28;20021;-72
2022/07/19 10:07:28;;;;;;;;;;;;;;;;;;5001669;28;19914;-72
2022/07/19 10:09:53;;;;;;;;;;;;;;;;;;5001980;28;19932;-72
2022/07/19 10:12:18;;;;;;;;;;;;;;;;;;4998888;28;19957;-71
2022/07/19 10:14:43;;;;;;;;;;;;;;;;;;4998202;28;19913;-72
2022/07/19 10:17:09;;;;;;;;;;;;;;;;;;5003350;28;19928;-71
2022/07/19 10:19:34;;;;;;;;;;;;;;;;;;4998431;28;19936;-71
2022/07/19 10:21:59;;;;;;;;;;;;;;;;;;4999753;28;20455;-72
2022/07/19 10:24:24;;;;;;;;;;;;;;;;;;5007525;28;19913;-71
2022/07/19 10:26:49;;;;;;;;;;;;;;;;;;5002971;28;19917;-71
2022/07/19 10:29:15;;;;;;;;;;;;;;;;;;4998980;28;20929;-70
2022/07/19 10:31:40;;;;;;;;;;;;;;;;;;5000829;28;19951;-71
2022/07/19 10:34:05;;;;;;;;;;;;;;;;;;4999663;28;20277;-70
2022/07/19 10:36:32;;;;;;;;;;;;;;;;;;4999607;28;20004;-71
2022/07/19 10:38:57;;;;;;;;;;;;;;;;;;5001471;28;19996;-71
2022/07/19 10:41:22;;;;;;;;;;;;;;;;;;5001784;28;20012;-69
2022/07/19 10:43:47;;;;;;;;;;;;;;;;;;5000551;28;19944;-70
2022/07/19 10:46:13;;;;;;;;;;;;;;;;;;4997493;28;20125;-70
2022/07/19 10:48:38;;;;;;;;;;;;;;;;;;5000059;28;19913;-70
2022/07/19 10:51:03;;;;;;;;;;;;;;;;;;5002604;28;19918;-70
2022/07/19 10:53:28;;;;;;;;;;;;;;;;;;5003020;28;19910;-70
2022/07/19 10:55:54;;;;;;;;;;;;;;;;;;4996250;28;20268;-72
2022/07/19 10:58:19;;;;;;;;;;;;;;;;;;4999603;28;19913;-70
2022/07/19 11:00:44;;;;;;;;;;;;;;;;;;5000369;28;19909;-70
2022/07/19 11:03:09;;;;;;;;;;;;;;;;;;5002475;28;20263;-71
2022/07/19 11:05:34;;;;;;;;;;;;;;;;;;4999934;28;19913;-69
2022/07/19 11:07:59;;;;;;;;;;;;;;;;;;5002841;28;20265;-69
2022/07/19 11:10:25;;;;;;;;;;;;;;;;;;5004220;28;19917;-70
2022/07/19 11:12:50;;;;;;;;;;;;;;;;;;4997384;28;19917;-69
2022/07/19 11:15:16;;;;;;;;;;;;;;;;;;4997230;28;19921;-69
2022/07/19 11:17:41;;;;;;;;;;;;;;;;;;4997590;28;19917;-69
2022/07/19 11:20:07;;;;;;;;;;;;;;;;;;4999155;28;19975;-70
2022/07/19 11:22:32;;;;;;;;;;;;;;;;;;5007836;28;20263;-70
2022/07/19 11:24:57;;;;;;;;;;;;;;;;;;5001591;28;19913;-68
2022/07/19 11:27:22;;;;;;;;;;;;;;;;;;5006513;28;19909;-72
2022/07/19 11:29:47;;;;;;;;;;;;;;;;;;5005308;28;20000;-69
2022/07/19 11:32:12;;;;;;;;;;;;;;;;;;5005254;28;19913;-69
2022/07/19 11:34:37;;;;;;;;;;;;;;;;;;5003659;28;19917;-69
2022/07/19 11:37:03;;;;;;;;;;;;;;;;;;4999593;28;19940;-69
2022/07/19 11:39:28;;;;;;;;;;;;;;;;;;5009346;28;19913;-68
2022/07/19 11:41:53;;;;;;;;;;;;;;;;;;5004299;28;20336;-68
2022/07/19 11:44:18;;;;;;;;;;;;;;;;;;5000881;28;19913;-70
2022/07/19 11:46:45;;;;;;;;;;;;;;;;;;5001452;28;19921;-69
2022/07/19 11:49:10;;;;;;;;;;;;;;;;;;5006126;28;19916;-72
2022/07/19 11:51:35;;;;;;;;;;;;;;;;;;5004254;28;19918;-70
2022/07/19 11:54:00;;;;;;;;;;;;;;;;;;5002591;28;19959;-69
2022/07/19 11:56:25;;;;;;;;;;;;;;;;;;4998217;28;20092;-70
2022/07/19 11:58:50;;;;;;;;;;;;;;;;;;5004175;28;19955;-69
2022/07/19 12:01:15;;;;;;;;;;;;;;;;;;5003859;28;19917;-69
2022/07/19 12:03:41;;;;;;;;;;;;;;;;;;5003304;28;19919;-69
2022/07/19 12:06:06;;;;;;;;;;;;;;;;;;5004902;28;20339;-69
2022/07/19 12:08:31;;;;;;;;;;;;;;;;;;5002760;28;19909;-70
2022/07/19 12:10:56;;;;;;;;;;;;;;;;;;5001828;28;19916;-69
2022/07/19 12:13:21;;;;;;;;;;;;;;;;;;5006539;28;20342;-72
2022/07/19 12:15:49;;;;;;;;;;;;;;;;;;4997161;28;20039;-72
2022/07/19 12:18:14;;;;;;;;;;;;;;;;;;4998905;28;19910;-68
2022/07/19 12:20:39;;;;;;;;;;;;;;;;;;5000804;28;20503;-69
2022/07/19 12:23:04;;;;;;;;;;;;;;;;;;5001918;28;20319;-70
2022/07/19 12:25:29;;;;;;;;;;;;;;;;;;5000328;28;19952;-69
2022/07/19 12:27:54;;;;;;;;;;;;;;;;;;5003480;28;19913;-73
2022/07/19 12:30:19;;;;;;;;;;;;;;;;;;5001104;28;19913;-70
2022/07/19 12:32:47;;;;;;;;;;;;;;;;;;5004233;28;21657;-71
2022/07/19 12:35:13;;;;;;;;;;;;;;;;;;4995905;28;19935;-69
2022/07/19 12:37:40;;;;;;;;;;;;;;;;;;5004103;28;19916;-70
2022/07/19 12:40:06;;;;;;;;;;;;;;;;;;5000405;28;19913;-70
2022/07/19 12:42:31;;;;;;;;;;;;;;;;;;5001799;28;20262;-72
2022/07/19 12:44:56;;;;;;;;;;;;;;;;;;4993184;28;20261;-71
2022/07/19 12:47:21;;;;;;;;;;;;;;;;;;5002840;28;19952;-70
2022/07/19 12:49:46;;;;;;;;;;;;;;;;;;5000363;28;19913;-69
2022/07/19 12:52:11;;;;;;;;;;;;;;;;;;5002530;28;19918;-69
2022/07/19 12:54:37;;;;;;;;;;;;;;;;;;5003173;28;19913;-69
2022/07/19 12:57:02;;;;;;;;;;;;;;;;;;4999465;28;20307;-69
2022/07/19 12:59:39;;;;;;;;;;;;;;;;;;4996532;28;19914;-69
2022/07/19 13:02:04;;;;;;;;;;;;;;;;;;5000557;28;19909;-70
2022/07/19 13:04:29;;;;;;;;;;;;;;;;;;5002181;28;19960;-69
2022/07/19 13:06:54;;;;;;;;;;;;;;;;;;5004542;28;20083;-69
2022/07/19 13:09:19;;;;;;;;;;;;;;;;;;4998066;28;19952;-69
2022/07/19 13:11:45;;;;;;;;;;;;;;;;;;5003217;28;19913;-73
2022/07/19 13:14:11;;;;;;;;;;;;;;;;;;5002566;28;20000;-69
2022/07/19 13:16:36;;;;;;;;;;;;;;;;;;5001556;28;19921;-69
2022/07/19 13:19:01;;;;;;;;;;;;;;;;;;5001286;28;19925;-69
2022/07/19 13:21:27;;;;;;;;;;;;;;;;;;4997570;28;19959;-70
2022/07/19 13:23:52;;;;;;;;;;;;;;;;;;5002085;28;20342;-70
2022/07/19 13:26:17;;;;;;;;;;;;;;;;;;4996969;28;19924;-68
2022/07/19 13:28:42;;;;;;;;;;;;;;;;;;4999038;28;19913;-72
2022/07/19 13:31:07;;;;;;;;;;;;;;;;;;4997417;28;19917;-69
2022/07/19 13:33:32;;;;;;;;;;;;;;;;;;4998359;28;20020;-68
2022/07/19 13:35:57;;;;;;;;;;;;;;;;;;4995882;28;20230;-71
2022/07/19 13:38:22;;;;;;;;;;;;;;;;;;5001381;28;19913;-72
2022/07/19 13:40:47;;;;;;;;;;;;;;;;;;5001841;28;20373;-69
2022/07/19 13:43:13;;;;;;;;;;;;;;;;;;4998744;28;20287;-69
2022/07/19 13:45:38;;;;;;;;;;;;;;;;;;4994595;28;20005;-70
2022/07/19 13:48:03;;;;;;;;;;;;;;;;;;5002509;28;19924;-70
2022/07/19 13:50:28;;;;;;;;;;;;;;;;;;5004134;28;19914;-70
2022/07/19 13:52:53;;;;;;;;;;;;;;;;;;5000659;28;19909;-71
2022/07/19 13:55:18;;;;;;;;;;;;;;;;;;4998615;28;19917;-70
2022/07/19 13:57:43;;;;;;;;;;;;;;;;;;4998599;28;19922;-69
2022/07/19 14:00:10;;;;;;;;;;;;;;;;;;4998779;28;19910;-68
2022/07/19 14:02:35;;;;;;;;;;;;;;;;;;5000872;28;20284;-69
2022/07/19 14:05:00;;;;;;;;;;;;;;;;;;5002682;28;20570;-70
2022/07/19 14:07:25;;;;;;;;;;;;;;;;;;4998850;28;19920;-68
2022/07/19 14:09:50;;;;;;;;;;;;;;;;;;4999802;28;19913;-71
2022/07/19 14:12:16;;;;;;;;;;;;;;;;;;5002455;28;19917;-71
2022/07/19 14:14:41;;;;;;;;;;;;;;;;;;5001317;28;19916;-70
2022/07/19 14:17:06;;;;;;;;;;;;;;;;;;4997830;28;19936;-70
2022/07/19 14:19:31;;;;;;;;;;;;;;;;;;5004478;28;19960;-69
2022/07/19 14:21:56;;;;;;;;;;;;;;;;;;5001533;28;19928;-69
2022/07/19 14:24:22;;;;;;;;;;;;;;;;;;5002331;28;20446;-71
2022/07/19 14:26:47;;;;;;;;;;;;;;;;;;5004208;28;19917;-72
2022/07/19 14:29:12;;;;;;;;;;;;;;;;;;5005114;28;19909;-71
2022/07/19 14:31:37;;;;;;;;;;;;;;;;;;5000684;28;19940;-71
2022/07/19 14:34:03;;;;;;;;;;;;;;;;;;4999903;28;20277;-69
2022/07/19 14:36:28;;;;;;;;;;;;;;;;;;5004207;28;20106;-70
2022/07/19 14:38:53;;;;;;;;;;;;;;;;;;5006281;28;19918;-71
2022/07/19 14:41:18;;;;;;;;;;;;;;;;;;5011203;28;19943;-71
2022/07/19 14:43:43;;;;;;;;;;;;;;;;;;5008199;28;19923;-73
2022/07/19 14:46:08;;;;;;;;;;;;;;;;;;5001368;28;20441;-71
2022/07/19 14:48:33;;;;;;;;;;;;;;;;;;5002913;28;19983;-71
2022/07/19 14:50:58;;;;;;;;;;;;;;;;;;5004060;28;20012;-72
2022/07/19 14:53:24;;;;;;;;;;;;;;;;;;5007937;28;20004;-72
2022/07/19 14:55:49;;;;;;;;;;;;;;;;;;5008072;28;19955;-71
2022/07/19 14:58:14;;;;;;;;;;;;;;;;;;5005102;28;19910;-73
2022/07/19 15:00:39;;;;;;;;;;;;;;;;;;5005820;28;19913;-72
2022/07/19 15:03:04;;;;;;;;;;;;;;;;;;5004202;28;19947;-71
2022/07/19 15:05:29;;;;;;;;;;;;;;;;;;5002251;28;19913;-71
2022/07/19 15:07:54;;;;;;;;;;;;;;;;;;5004368;28;19935;-71
2022/07/19 15:10:19;;;;;;;;;;;;;;;;;;5007719;28;19959;-70
2022/07/19 15:12:44;;;;;;;;;;;;;;;;;;5004428;28;19952;-70
2022/07/19 15:15:10;;;;;;;;;;;;;;;;;;5004436;28;19917;-72
2022/07/19 15:17:35;;;;;;;;;;;;;;;;;;5004850;28;19916;-74
2022/07/19 15:20:00;;;;;;;;;;;;;;;;;;5006238;28;19914;-71
2022/07/19 15:22:25;;;;;;;;;;;;;;;;;;5005791;28;19932;-70
2022/07/19 15:24:50;;;;;;;;;;;;;;;;;;5000917;28;20288;-71
2022/07/19 15:27:15;;;;;;;;;;;;;;;;;;5007011;28;19918;-74
2022/07/19 15:29:41;;;;;;;;;;;;;;;;;;5006067;28;19959;-71
2022/07/19 15:32:06;;;;;;;;;;;;;;;;;;5005539;28;19913;-73
2022/07/19 15:34:32;;;;;;;;;;;;;;;;;;5003808;28;20015;-71
2022/07/19 15:36:57;;;;;;;;;;;;;;;;;;5006533;28;19909;-71
2022/07/19 15:39:22;;;;;;;;;;;;;;;;;;4998697;28;20022;-72
2022/07/19 15:41:47;;;;;;;;;;;;;;;;;;5006637;28;19909;-69
2022/07/19 15:44:12;;;;;;;;;;;;;;;;;;5002056;28;20437;-69
2022/07/19 15:46:37;;;;;;;;;;;;;;;;;;5001282;28;20149;-70
2022/07/19 15:49:02;;;;;;;;;;;;;;;;;;5004526;28;20020;-69
2022/07/19 15:51:27;;;;;;;;;;;;;;;;;;5001966;28;19948;-70
2022/07/19 15:53:53;;;;;;;;;;;;;;;;;;4998134;28;21702;-74
2022/07/19 15:56:18;;;;;;;;;;;;;;;;;;5006861;28;20009;-71
2022/07/19 15:58:43;;;;;;;;;;;;;;;;;;5000894;28;19953;-70
2022/07/19 16:01:08;;;;;;;;;;;;;;;;;;5005693;28;20403;-72
2022/07/19 16:03:33;;;;;;;;;;;;;;;;;;4996817;28;19956;-70
2022/07/19 16:05:58;;;;;;;;;;;;;;;;;;5005956;28;19914;-71
2022/07/19 16:08:25;;;;;;;;;;;;;;;;;;4998173;28;21401;-70
2022/07/19 16:10:50;;;;;;;;;;;;;;;;;;5002779;28;19913;-69
2022/07/19 16:13:15;;;;;;;;;;;;;;;;;;4997890;28;19924;-69
2022/07/19 16:15:40;;;;;;;;;;;;;;;;;;5003597;28;20497;-69
2022/07/19 16:18:05;;;;;;;;;;;;;;;;;;5003269;28;19952;-68
2022/07/19 16:20:30;;;;;;;;;;;;;;;;;;5001043;28;19967;-69
2022/07/19 16:22:56;;;;;;;;;;;;;;;;;;4995869;28;20023;-68
2022/07/19 16:25:21;;;;;;;;;;;;;;;;;;5002403;28;20011;-70
2022/07/19 16:27:46;;;;;;;;;;;;;;;;;;5021375;28;19913;-69
2022/07/19 16:30:11;;;;;;;;;;;;;;;;;;5007048;28;19917;-69
2022/07/19 16:32:36;;;;;;;;;;;;;;;;;;5003969;28;19917;-70
2022/07/19 16:35:02;;;;;;;;;;;;;;;;;;5002017;28;20007;-69